createdAt,value
2023-02-25T00:05:10.811Z,18.4
2023-02-25T00:11:04.263Z,18.4
2023-02-25T00:16:58.260Z,18.4
2023-02-25T00:22:52.012Z,18.4
2023-02-25T00:28:53.416Z,18.4
2023-02-25T00:34:46.558Z,18.4
2023-02-25T00:40:45.625Z,18.4
2023-02-25T00:46:39.194Z,18.4
2023-02-25T00:52:23.203Z,18.4
2023-02-25T00:58:16.535Z,18.4
2023-02-25T01:04:15.677Z,18.4
2023-02-25T01:10:11.307Z,18.4
2023-02-25T01:16:05.348Z,18.4
2023-02-25T01:21:27.814Z,18.4
2023-02-25T01:27:05.443Z,18.4
2023-02-25T01:33:00.692Z,18.4
2023-02-25T01:38:53.642Z,18.4
2023-02-25T01:44:46.687Z,18.4
2023-02-25T01:50:39.901Z,18.4
2023-02-25T01:56:33.937Z,18.4
2023-02-25T02:02:26.624Z,18.4
2023-02-25T02:08:20.507Z,18.4
2023-02-25T02:14:13.988Z,18.4
2023-02-25T02:20:06.776Z,18.4
2023-02-25T02:25:59.829Z,18.4
2023-02-25T02:31:36.871Z,18.4
2023-02-25T02:37:30.458Z,18.4
2023-02-25T02:43:08.013Z,18.4
2023-02-25T02:49:00.912Z,18.4
2023-02-25T02:54:53.816Z,18.4
2023-02-25T03:00:30.773Z,18.4
2023-02-25T03:06:24.845Z,18.4
2023-02-25T03:12:02.604Z,18.4
2023-02-25T03:17:24.952Z,18.4
2023-02-25T03:23:03.801Z,18.5
2023-02-25T03:28:40.863Z,18.5
2023-02-25T03:34:18.771Z,18.5
2023-02-25T03:39:55.389Z,18.5
2023-02-25T03:45:33.057Z,18.5
2023-02-25T03:51:12.014Z,18.5
2023-02-25T03:56:34.147Z,18.5
2023-02-25T04:02:11.644Z,18.5
2023-02-25T04:07:50.260Z,18.5
2023-02-25T04:13:42.220Z,18.5
2023-02-25T04:19:05.014Z,18.5
2023-02-25T04:24:57.357Z,18.5
2023-02-25T04:30:20.440Z,18.5
2023-02-25T04:36:15.208Z,18.5
2023-02-25T04:42:08.950Z,18.5
2023-02-25T04:48:03.320Z,18.5
2023-02-25T04:53:57.152Z,18.5
2023-02-25T04:59:49.385Z,18.6
2023-02-25T05:05:42.957Z,18.5
2023-02-25T05:11:38.156Z,18.6
2023-02-25T05:22:54.925Z,18.8
2023-02-25T05:28:47.876Z,18.8
2023-02-25T05:45:56.279Z,18.8
2023-02-25T06:14:03.023Z,18.8
2023-02-25T06:19:56.813Z,18.8
2023-02-25T06:25:34.690Z,18.8
2023-02-25T06:31:28.174Z,18.8
2023-02-25T06:42:44.949Z,18.6
2023-02-25T06:48:39.201Z,18.6
2023-02-25T06:54:16.534Z,18.6
2023-02-25T06:59:54.911Z,18.6
2023-02-25T07:05:33.431Z,18.6
2023-02-25T07:22:11.525Z,18.6
2023-02-25T07:27:48.598Z,18.6
2023-02-25T07:33:43.255Z,18.5
2023-02-25T07:39:36.593Z,18.4
2023-02-25T07:45:28.516Z,18.4
2023-02-25T07:51:21.513Z,18.4
2023-02-25T07:57:15.280Z,18.4
2023-02-25T08:03:11.532Z,18.4
2023-02-25T08:09:06.872Z,22.4
2023-02-25T08:14:59.853Z,24.3
2023-02-25T08:20:52.718Z,24.3
2023-02-25T08:26:46.771Z,24.9
2023-02-25T08:32:42.042Z,25.3
2023-02-25T08:38:20.182Z,25.8
2023-02-25T08:44:15.517Z,26.1
2023-02-25T08:50:08.457Z,26.1
2023-02-25T08:56:01.632Z,24.9
2023-02-25T09:01:54.353Z,24.6
2023-02-25T09:07:49.885Z,24.3
2023-02-25T09:13:56.038Z,24.1
2023-02-25T09:19:33.886Z,24
2023-02-25T09:25:26.428Z,23.8
2023-02-25T09:31:19.122Z,23.6
2023-02-25T09:37:13.299Z,23.5
2023-02-25T09:43:05.726Z,23.4
2023-02-25T09:48:45.364Z,23.3
2023-02-25T09:54:24.966Z,23.2
2023-02-25T10:00:01.601Z,23.1
2023-02-25T10:05:40.039Z,23.1
2023-02-25T10:11:17.988Z,23
2023-02-25T10:17:00.025Z,22.9
2023-02-25T10:22:37.152Z,22.9
2023-02-25T10:28:13.729Z,22.9
2023-02-25T10:34:07.254Z,22.9
2023-02-25T10:39:59.892Z,22.9
2023-02-25T10:45:53.135Z,22.9
2023-02-25T10:51:52.726Z,22.8
2023-02-25T10:57:45.571Z,22.8
2023-02-25T11:03:39.748Z,22.8
2023-02-25T11:09:32.410Z,22.8
2023-02-25T11:15:38.116Z,22.9
2023-02-25T11:21:39.287Z,22.9
2023-02-25T11:27:31.133Z,22.9
2023-02-25T11:33:28.007Z,22.9
2023-02-25T11:39:24.422Z,22.6
2023-02-25T11:45:17.103Z,22.5
2023-02-25T11:51:10.516Z,22.6
2023-02-25T11:56:32.272Z,22.7
2023-02-25T12:02:25.093Z,22.8
2023-02-25T12:08:33.072Z,23
2023-02-25T12:14:25.142Z,23.2
2023-02-25T12:20:02.364Z,22.9
2023-02-25T12:25:55.687Z,22.9
2023-02-25T12:31:48.658Z,22.8
2023-02-25T12:37:41.094Z,22.9
2023-02-25T12:43:37.936Z,23
2023-02-25T12:49:31.277Z,23.3
2023-02-25T12:55:25.387Z,23.6
2023-02-25T13:01:03.674Z,23.8
2023-02-25T13:06:57.567Z,24.2
2023-02-25T13:13:16.158Z,25
2023-02-25T13:19:09.175Z,25.3
2023-02-25T13:25:02.483Z,25.3
2023-02-25T13:30:55.479Z,25.2
2023-02-25T13:36:49.559Z,25.1
2023-02-25T13:42:26.736Z,25
2023-02-25T13:48:19.067Z,24.9
2023-02-25T13:54:15.136Z,24.7
2023-02-25T14:00:07.891Z,24.4
2023-02-25T14:05:59.899Z,24.3
2023-02-25T14:11:55.631Z,24.2
2023-02-25T14:17:50.728Z,24
2023-02-25T14:23:44.167Z,23.9
2023-02-25T14:29:06.922Z,23.9
2023-02-25T14:35:00.890Z,23.9
2023-02-25T14:40:53.686Z,24
2023-02-25T14:46:46.646Z,23.9
2023-02-25T14:52:39.341Z,23.8
2023-02-25T14:58:31.764Z,23.6
2023-02-25T15:04:25.673Z,23.5
2023-02-25T15:10:20.400Z,23.4
2023-02-25T15:16:12.986Z,23.3
2023-02-25T15:21:51.670Z,23.1
2023-02-25T15:27:44.447Z,22.9
2023-02-25T15:33:37.480Z,22.8
2023-02-25T15:39:31.900Z,22.7
2023-02-25T15:45:27.159Z,23
2023-02-25T15:50:48.473Z,23.4
2023-02-25T15:56:42.349Z,21.8
2023-02-25T16:02:20.888Z,21.3
2023-02-25T16:08:17.925Z,20.9
2023-02-25T16:14:10.541Z,20.8
2023-02-25T16:20:04.555Z,20.6
2023-02-25T16:25:57.209Z,20.5
2023-02-25T16:31:50.628Z,20.4
2023-02-25T16:37:48.676Z,20.3
2023-02-25T16:43:34.224Z,20.2
2023-02-25T16:49:27.781Z,20.1
2023-02-25T16:55:21.357Z,20.1
2023-02-25T17:01:14.253Z,20.1
2023-02-25T17:06:52.527Z,20.1
2023-02-25T17:12:45.290Z,20.1
2023-02-25T17:18:39.373Z,20.1
2023-02-25T17:24:17.868Z,20
2023-02-25T17:30:11.487Z,19.9
2023-02-25T17:36:05.795Z,19.6
2023-02-25T17:42:01.943Z,19.6
2023-02-25T17:47:55.680Z,19.5
2023-02-25T17:53:50.306Z,19.3
2023-02-25T17:59:45.544Z,19.3
2023-02-25T18:05:40.467Z,19.2
2023-02-25T18:11:34.655Z,19.2
2023-02-25T18:17:38.890Z,19.2
2023-02-25T18:23:33.147Z,19.3
2023-02-25T18:29:26.816Z,19.4
2023-02-25T18:35:22.143Z,19.4
2023-02-25T18:41:02.303Z,19.6
2023-02-25T18:46:57.225Z,19.8
2023-02-25T18:52:51.749Z,19.9
2023-02-25T18:58:45.487Z,20.1
2023-02-25T19:04:23.585Z,20.3
2023-02-25T19:10:17.419Z,20.4
2023-02-25T19:16:11.277Z,20.6
2023-02-25T19:22:05.178Z,20.8
2023-02-25T19:27:58.222Z,20.9
2023-02-25T19:33:53.988Z,21.2
2023-02-25T19:39:31.196Z,21.3
2023-02-25T19:45:25.123Z,21.5
2023-02-25T19:51:18.581Z,21.8
2023-02-25T19:57:13.185Z,21.9
2023-02-25T20:03:07.221Z,22
2023-02-25T20:09:01.971Z,22.1
2023-02-25T20:14:55.114Z,22.1
2023-02-25T20:20:50.400Z,21.9
2023-02-25T20:26:46.615Z,21.4
2023-02-25T20:32:40.366Z,21.1
2023-02-25T20:38:21.470Z,20.9
2023-02-25T20:44:14.722Z,20.8
2023-02-25T20:50:10.393Z,20.8
2023-02-25T20:56:03.550Z,20.8
2023-02-25T21:01:56.747Z,20.8
2023-02-25T21:07:51.599Z,21
2023-02-25T21:13:46.441Z,23
2023-02-25T21:19:39.747Z,23.7
2023-02-25T21:25:33.206Z,23.9
2023-02-25T21:31:27.453Z,24
2023-02-25T21:37:22.344Z,24
2023-02-25T21:43:15.537Z,24.1
2023-02-25T21:49:08.421Z,24.1
2023-02-25T21:55:00.912Z,24
2023-02-25T22:00:53.859Z,24
2023-02-25T22:06:48.109Z,23.9
2023-02-25T22:12:40.802Z,23.9
2023-02-25T22:18:33.442Z,23.9
2023-02-25T22:24:27.871Z,23.8
2023-02-25T22:30:22.441Z,23.8
2023-02-25T22:36:15.268Z,23.8
2023-02-25T22:41:52.607Z,23.7
2023-02-25T22:47:30.647Z,23.7
2023-02-25T22:53:21.897Z,23.7
2023-02-25T22:59:14.326Z,23.6
2023-02-25T23:05:05.823Z,23.6
2023-02-25T23:11:13.199Z,23.6
2023-02-25T23:17:08.372Z,23.6
2023-02-25T23:23:00.662Z,23.5
2023-02-25T23:28:53.412Z,23.5
2023-02-25T23:34:46.487Z,23.4
2023-02-25T23:40:40.369Z,23.4
2023-02-25T23:46:37.049Z,23.4
2023-02-25T23:52:30.637Z,23.4
2023-02-25T23:58:24.196Z,23.4
